createdAt,value
2023-04-13T00:01:32.819Z,97202.03
2023-04-13T00:04:03.745Z,97202.66
2023-04-13T00:06:30.610Z,97195.22
2023-04-13T00:08:58.746Z,97193.59
2023-04-13T00:11:27.779Z,97189.19
2023-04-13T00:13:55.244Z,97201.06
2023-04-13T00:16:22.289Z,97190.19
2023-04-13T00:18:50.412Z,97191.75
2023-04-13T00:21:17.274Z,97197.63
2023-04-13T00:23:44.705Z,97186.91
2023-04-13T00:26:11.336Z,97193.34
2023-04-13T00:28:37.932Z,97185.25
2023-04-13T00:31:04.713Z,97183.88
2023-04-13T00:33:32.345Z,97185.69
2023-04-13T00:35:59.500Z,97183.44
2023-04-13T00:38:29.792Z,97184.41
2023-04-13T00:40:56.339Z,97173.56
2023-04-13T00:43:23.482Z,97183.00
2023-04-13T00:45:50.117Z,97174.38
2023-04-13T00:48:16.955Z,97184.88
2023-04-13T00:50:45.093Z,97178.19
2023-04-13T00:53:13.689Z,97187.47
2023-04-13T00:55:42.642Z,97181.41
2023-04-13T00:58:09.411Z,97174.16
2023-04-13T01:00:39.635Z,97175.16
2023-04-13T01:03:06.841Z,97178.53
2023-04-13T01:05:43.146Z,97172.13
2023-04-13T01:08:26.053Z,97169.50
2023-04-13T01:11:11.234Z,97168.75
2023-04-13T01:13:45.136Z,97173.66
2023-04-13T01:16:19.986Z,97175.25
2023-04-13T01:18:52.820Z,97155.94
2023-04-13T01:21:24.746Z,97152.69
2023-04-13T01:24:18.211Z,97156.50
2023-04-13T01:26:52.771Z,97151.59
2023-04-13T01:29:19.640Z,97153.00
2023-04-13T01:31:48.813Z,97146.53
2023-04-13T01:34:16.556Z,97139.69
2023-04-13T01:36:43.762Z,97142.69
2023-04-13T01:39:18.578Z,97152.31
2023-04-13T01:41:45.213Z,97144.50
2023-04-13T01:44:13.141Z,97146.78
2023-04-13T01:46:46.254Z,97147.66
2023-04-13T01:50:01.854Z,97144.25
2023-04-13T01:52:37.760Z,97149.72
2023-04-13T01:55:06.967Z,97142.84
2023-04-13T01:57:37.471Z,97141.06
2023-04-13T02:00:12.105Z,97140.47
2023-04-13T02:02:39.396Z,97132.00
2023-04-13T02:05:07.470Z,97135.25
2023-04-13T02:07:34.711Z,97145.94
2023-04-13T02:10:01.196Z,97151.78
2023-04-13T02:12:28.672Z,97157.41
2023-04-13T02:14:56.564Z,97163.09
2023-04-13T02:17:25.448Z,97155.00
2023-04-13T02:19:51.969Z,97157.22
2023-04-13T02:22:18.450Z,97159.03
2023-04-13T02:24:47.523Z,97152.78
2023-04-13T02:27:14.164Z,97153.00
2023-04-13T02:29:41.789Z,97153.19
2023-04-13T02:32:08.339Z,97143.53
2023-04-13T02:34:35.483Z,97155.03
2023-04-13T02:37:02.821Z,97144.13
2023-04-13T02:39:29.483Z,97149.38
2023-04-13T02:41:56.392Z,97149.38
2023-04-13T02:44:23.536Z,97144.94
2023-04-13T02:46:55.475Z,97147.38
2023-04-13T02:49:22.428Z,97139.09
2023-04-13T02:52:09.312Z,97138.69
2023-04-13T02:54:54.529Z,97139.69
2023-04-13T02:57:25.202Z,97138.69
2023-04-13T02:59:53.278Z,97143.75
2023-04-13T03:02:23.311Z,97142.31
2023-04-13T03:04:50.385Z,97158.03
2023-04-13T03:07:17.122Z,97152.97
2023-04-13T03:09:48.179Z,97163.88
2023-04-13T03:12:17.077Z,97156.63
2023-04-13T03:14:45.438Z,97169.34
2023-04-13T03:17:12.646Z,97176.97
2023-04-13T03:19:44.806Z,97178.78
2023-04-13T03:22:13.005Z,97183.00
2023-04-13T03:24:44.861Z,97194.31
2023-04-13T03:27:17.292Z,97184.00
2023-04-13T03:29:47.941Z,97199.53
2023-04-13T03:32:20.575Z,97199.75
2023-04-13T03:34:50.409Z,97196.53
2023-04-13T03:37:17.934Z,97195.72
2023-04-13T03:39:44.897Z,97196.94
2023-04-13T03:42:16.054Z,97204.38
2023-04-13T03:44:50.831Z,97198.91
2023-04-13T03:47:17.353Z,97206.41
2023-04-13T03:49:44.677Z,97212.03
2023-04-13T03:52:11.207Z,97204.75
2023-04-13T03:54:41.512Z,97201.72
2023-04-13T03:57:08.753Z,97203.16
2023-04-13T03:59:36.039Z,97205.97
2023-04-13T04:02:04.714Z,97213.41
2023-04-13T04:04:34.414Z,97225.94
2023-04-13T04:07:00.982Z,97212.44
2023-04-13T04:09:27.675Z,97215.47
2023-04-13T04:11:56.577Z,97218.91
2023-04-13T04:14:35.153Z,97211.22
2023-04-13T04:17:10.160Z,97214.44
2023-04-13T04:19:37.490Z,97206.38
2023-04-13T04:22:06.982Z,97200.13
2023-04-13T04:24:37.805Z,97212.19
2023-04-13T04:27:05.817Z,97208.59
2023-04-13T04:29:35.730Z,97203.94
2023-04-13T04:32:13.185Z,97215.63
2023-04-13T04:34:41.022Z,97209.75
2023-04-13T04:37:20.422Z,97217.00
2023-04-13T04:39:56.001Z,97216.38
2023-04-13T04:42:22.693Z,97217.78
2023-04-13T04:44:50.256Z,97225.25
2023-04-13T04:47:19.676Z,97223.63
2023-04-13T04:50:05.405Z,97229.84
2023-04-13T04:52:37.593Z,97237.06
2023-04-13T04:55:06.317Z,97232.91
2023-04-13T04:57:34.499Z,97242.94
2023-04-13T05:00:09.331Z,97245.78
2023-04-13T05:02:37.110Z,97256.50
2023-04-13T05:05:06.924Z,97258.28
2023-04-13T05:07:33.544Z,97266.56
2023-04-13T05:10:00.112Z,97258.94
2023-04-13T05:12:26.611Z,97258.94
2023-04-13T05:14:53.244Z,97257.69
2023-04-13T05:17:19.875Z,97259.34
2023-04-13T05:19:47.145Z,97273.47
2023-04-13T05:22:21.244Z,97276.06
2023-04-13T05:24:54.848Z,97273.19
2023-04-13T05:27:22.004Z,97278.88
2023-04-13T05:29:48.498Z,97288.38
2023-04-13T05:32:20.479Z,97270.84
2023-04-13T05:34:50.200Z,97274.69
2023-04-13T05:37:21.411Z,97277.47
2023-04-13T05:39:47.870Z,97268.22
2023-04-13T05:42:18.049Z,97287.34
2023-04-13T05:44:45.243Z,97283.56
2023-04-13T05:47:13.177Z,97280.47
2023-04-13T05:49:42.087Z,97294.19
2023-04-13T05:52:10.473Z,97297.78
2023-04-13T05:54:42.745Z,97300.03
2023-04-13T05:57:09.237Z,97307.72
2023-04-13T05:59:40.205Z,97304.47
2023-04-13T06:02:08.292Z,97316.00
2023-04-13T06:04:34.918Z,97315.84
2023-04-13T06:07:01.903Z,97316.66
2023-04-13T06:09:28.458Z,97319.88
2023-04-13T06:11:55.301Z,97321.34
2023-04-13T06:14:22.234Z,97329.84
2023-04-13T06:16:48.829Z,97331.09
2023-04-13T06:19:15.634Z,97323.81
2023-04-13T06:21:42.069Z,97330.81
2023-04-13T06:24:09.480Z,97326.81
2023-04-13T06:26:37.562Z,97335.91
2023-04-13T06:29:04.901Z,97339.97
2023-04-13T06:31:41.206Z,97340.41
2023-04-13T06:34:12.302Z,97333.28
2023-04-13T06:36:40.552Z,97338.72
2023-04-13T06:39:09.311Z,97334.88
2023-04-13T06:41:36.883Z,97338.34
2023-04-13T06:44:14.453Z,97341.56
2023-04-13T06:46:51.711Z,97347.28
2023-04-13T06:49:20.195Z,97340.75
2023-04-13T06:51:46.771Z,97344.81
2023-04-13T06:54:13.495Z,97340.25
2023-04-13T06:56:45.558Z,97349.91
2023-04-13T06:59:12.831Z,97346.38
2023-04-13T07:01:39.460Z,97337.94
2023-04-13T07:04:07.704Z,97347.25
2023-04-13T07:06:34.920Z,97352.69
2023-04-13T07:09:01.776Z,97354.81
2023-04-13T07:11:29.972Z,97345.09
2023-04-13T07:13:56.908Z,97351.66
2023-04-13T07:16:24.680Z,97351.03
2023-04-13T07:18:51.748Z,97357.13
2023-04-13T07:21:18.668Z,97359.56
2023-04-13T07:23:58.809Z,97365.03
2023-04-13T07:26:26.129Z,97368.91
2023-04-13T07:28:53.497Z,97364.06
2023-04-13T07:31:22.673Z,97369.06
2023-04-13T07:33:51.436Z,97375.16
2023-04-13T07:36:23.856Z,97384.47
2023-04-13T07:38:53.361Z,97379.00
2023-04-13T07:41:22.518Z,97383.88
2023-04-13T07:43:52.639Z,97388.47
2023-04-13T07:46:20.555Z,97387.50
2023-04-13T07:48:49.513Z,97401.91
2023-04-13T07:51:23.191Z,97399.47
2023-04-13T07:53:52.219Z,97409.53
2023-04-13T07:56:19.449Z,97416.00
2023-04-13T07:58:46.227Z,97411.09
2023-04-13T08:01:13.101Z,97414.59
2023-04-13T08:03:39.820Z,97416.59
2023-04-13T08:06:13.697Z,97417.66
2023-04-13T08:08:40.522Z,97426.91
2023-04-13T08:11:08.561Z,97424.94
2023-04-13T08:13:35.808Z,97417.88
2023-04-13T08:16:02.466Z,97428.59
2023-04-13T08:18:32.238Z,97432.47
2023-04-13T08:20:59.591Z,97437.38
2023-04-13T08:23:29.711Z,97429.47
2023-04-13T08:26:02.461Z,97436.16
2023-04-13T08:28:30.877Z,97435.75
2023-04-13T08:30:58.926Z,97437.53
2023-04-13T08:33:25.714Z,97438.91
2023-04-13T08:35:52.513Z,97439.78
2023-04-13T08:38:19.958Z,97438.69
2023-04-13T08:40:50.199Z,97443.53
2023-04-13T08:43:23.285Z,97444.16
2023-04-13T08:45:50.487Z,97446.16
2023-04-13T08:48:19.437Z,97444.38
2023-04-13T08:50:48.956Z,97445.19
2023-04-13T08:53:17.404Z,97437.88
2023-04-13T08:55:45.872Z,97440.91
2023-04-13T08:58:14.730Z,97450.63
2023-04-13T09:00:44.144Z,97442.16
2023-04-13T09:03:14.631Z,97444.75
2023-04-13T09:05:48.558Z,97449.41
2023-04-13T09:08:17.025Z,97448.22
2023-04-13T09:10:46.048Z,97447.59
2023-04-13T09:13:12.809Z,97448.81
2023-04-13T09:15:40.362Z,97446.13
2023-04-13T09:18:28.018Z,97458.47
2023-04-13T09:21:01.491Z,97454.59
2023-04-13T09:23:28.099Z,97461.69
2023-04-13T09:26:10.152Z,97451.41
2023-04-13T09:28:51.711Z,97449.84
2023-04-13T09:31:19.777Z,97464.69
2023-04-13T09:33:48.861Z,97457.69
2023-04-13T09:36:18.069Z,97458.88
2023-04-13T09:38:50.551Z,97451.97
2023-04-13T09:41:17.184Z,97460.88
2023-04-13T09:43:43.821Z,97461.25
2023-04-13T09:46:14.394Z,97457.47
2023-04-13T09:48:41.858Z,97460.25
2023-04-13T09:51:09.806Z,97464.56
2023-04-13T09:53:42.869Z,97463.38
2023-04-13T09:56:09.857Z,97459.91
2023-04-13T09:58:47.421Z,97467.78
2023-04-13T10:01:17.543Z,97467.81
2023-04-13T10:03:44.766Z,97472.25
2023-04-13T10:06:11.555Z,97470.59
2023-04-13T10:08:39.626Z,97472.06
2023-04-13T10:11:14.467Z,97479.13
2023-04-13T10:13:56.826Z,97475.25
2023-04-13T10:16:52.039Z,97474.06
2023-04-13T10:19:23.522Z,97481.00
2023-04-13T10:21:52.249Z,97476.16
2023-04-13T10:24:20.103Z,97478.53
2023-04-13T10:26:46.710Z,97485.78
2023-04-13T10:29:14.660Z,97484.44
2023-04-13T10:31:49.015Z,97488.75
2023-04-13T10:34:23.290Z,97491.16
2023-04-13T10:36:51.597Z,97493.41
2023-04-13T10:39:25.731Z,97487.81
2023-04-13T10:42:06.274Z,97484.91
2023-04-13T10:44:42.115Z,97475.25
2023-04-13T10:47:09.119Z,97484.19
2023-04-13T10:49:36.510Z,97474.53
2023-04-13T10:52:03.562Z,97476.94
2023-04-13T10:54:30.349Z,97469.00
2023-04-13T10:56:57.852Z,97472.81
2023-04-13T10:59:55.523Z,97464.63
2023-04-13T11:02:26.369Z,97467.97
2023-04-13T11:04:53.540Z,97453.13
2023-04-13T11:07:23.330Z,97463.66
2023-04-13T11:09:53.105Z,97454.16
2023-04-13T11:12:19.848Z,97453.88
2023-04-13T11:14:47.615Z,97449.47
2023-04-13T11:17:15.753Z,97439.06
2023-04-13T11:19:50.385Z,97441.91
2023-04-13T11:22:19.189Z,97439.91
2023-04-13T11:24:47.576Z,97447.38
2023-04-13T11:27:18.073Z,97456.34
2023-04-13T11:29:44.974Z,97446.78
2023-04-13T11:32:18.750Z,97456.44
2023-04-13T11:34:46.943Z,97455.00
2023-04-13T11:37:13.395Z,97464.44
2023-04-13T11:39:41.814Z,97474.94
2023-04-13T11:42:08.415Z,97494.97
2023-04-13T11:44:39.057Z,97502.72
2023-04-13T11:47:06.485Z,97489.25
2023-04-13T11:49:33.768Z,97489.81
2023-04-13T11:52:01.928Z,97489.22
2023-04-13T11:54:31.929Z,97487.44
2023-04-13T11:56:58.463Z,97470.63
2023-04-13T11:59:26.453Z,97481.38
2023-04-13T12:01:58.297Z,97471.53
2023-04-13T12:04:40.960Z,97470.22
2023-04-13T12:07:14.021Z,97466.69
2023-04-13T12:09:56.011Z,97465.66
2023-04-13T12:12:50.468Z,97465.31
2023-04-13T12:15:33.992Z,97461.19
2023-04-13T12:18:06.444Z,97461.25
2023-04-13T12:20:44.121Z,97454.31
2023-04-13T12:23:23.407Z,97455.78
2023-04-13T12:25:58.444Z,97459.03
2023-04-13T12:28:38.264Z,97456.28
2023-04-13T12:31:07.431Z,97462.47
2023-04-13T12:33:34.355Z,97453.00
2023-04-13T12:36:00.991Z,97456.50
2023-04-13T12:38:27.496Z,97451.09
2023-04-13T12:41:00.976Z,97448.28
2023-04-13T12:43:28.469Z,97450.72
2023-04-13T12:45:55.626Z,97442.69
2023-04-13T12:48:22.478Z,97444.97
2023-04-13T12:50:49.278Z,97434.50
2023-04-13T12:53:15.775Z,97427.25
2023-04-13T12:55:43.307Z,97434.31
2023-04-13T12:58:10.846Z,97433.41
2023-04-13T13:00:37.804Z,97436.69
2023-04-13T13:03:14.191Z,97438.09
2023-04-13T13:05:41.984Z,97428.63
2023-04-13T13:08:09.122Z,97432.75
2023-04-13T13:10:37.289Z,97422.78
2023-04-13T13:13:04.092Z,97426.84
2023-04-13T13:15:32.373Z,97416.34
2023-04-13T13:18:03.069Z,97431.31
2023-04-13T13:20:30.211Z,97430.63
2023-04-13T13:22:57.115Z,97437.94
2023-04-13T13:25:23.865Z,97426.03
2023-04-13T13:30:19.914Z,97422.81
2023-04-13T13:32:46.433Z,97414.59
2023-04-13T13:35:14.805Z,97410.31
2023-04-13T13:37:41.269Z,97408.72
2023-04-13T13:40:13.014Z,97419.47
2023-04-13T13:42:50.627Z,97410.22
2023-04-13T13:45:18.167Z,97407.53
2023-04-13T13:47:53.622Z,97404.41
2023-04-13T13:50:26.702Z,97417.59
2023-04-13T13:53:03.749Z,97421.75
2023-04-13T13:55:35.826Z,97410.06
2023-04-13T13:58:02.410Z,97414.31
2023-04-13T14:00:29.121Z,97419.31
2023-04-13T14:02:55.749Z,97412.81
2023-04-13T14:05:22.576Z,97417.56
2023-04-13T14:07:49.349Z,97421.38
2023-04-13T14:10:16.201Z,97419.97
2023-04-13T14:12:49.643Z,97426.88
2023-04-13T14:15:17.217Z,97421.22
2023-04-13T14:17:45.524Z,97424.94
2023-04-13T14:20:16.829Z,97430.59
2023-04-13T14:22:43.413Z,97423.44
2023-04-13T14:25:10.567Z,97425.72
2023-04-13T14:27:38.057Z,97424.50
2023-04-13T14:30:05.403Z,97424.94
2023-04-13T14:32:32.401Z,97418.72
2023-04-13T14:35:00.367Z,97421.84
2023-04-13T14:37:27.884Z,97427.25
2023-04-13T14:39:55.060Z,97424.94
2023-04-13T14:42:22.400Z,97431.38
2023-04-13T14:44:48.861Z,97428.28
2023-04-13T14:47:15.842Z,97431.28
2023-04-13T14:49:43.225Z,97435.63
2023-04-13T14:52:09.669Z,97438.72
2023-04-13T14:54:36.663Z,97444.03
2023-04-13T14:57:04.655Z,97448.50
2023-04-13T14:59:31.515Z,97447.97
2023-04-13T15:01:58.018Z,97444.63
2023-04-13T15:04:25.072Z,97443.91
2023-04-13T15:06:54.084Z,97438.28
2023-04-13T15:09:20.977Z,97443.13
2023-04-13T15:11:47.460Z,97455.53
2023-04-13T15:14:13.942Z,97456.09
2023-04-13T15:16:40.507Z,97459.78
2023-04-13T15:19:07.023Z,97453.91
2023-04-13T15:21:35.607Z,97466.53
2023-04-13T15:24:02.113Z,97462.09
2023-04-13T15:26:29.741Z,97466.13
2023-04-13T15:28:56.209Z,97454.00
2023-04-13T15:31:22.805Z,97447.34
2023-04-13T15:33:49.370Z,97454.06
2023-04-13T15:36:16.647Z,97454.41
2023-04-13T15:38:43.258Z,97460.94
2023-04-13T15:41:11.200Z,97460.25
2023-04-13T15:43:38.190Z,97464.03
2023-04-13T15:46:04.963Z,97467.97
2023-04-13T15:48:32.128Z,97480.75
2023-04-13T15:50:59.728Z,97482.00
2023-04-13T15:53:27.215Z,97487.59
2023-04-13T15:55:54.046Z,97490.84
2023-04-13T15:58:20.620Z,97486.03
2023-04-13T16:00:47.384Z,97502.34
2023-04-13T16:03:14.056Z,97492.03
2023-04-13T16:05:40.795Z,97494.25
2023-04-13T16:08:07.997Z,97488.84
2023-04-13T16:10:34.589Z,97488.53
2023-04-13T16:13:04.297Z,97493.69
2023-04-13T16:15:30.861Z,97502.50
2023-04-13T16:17:57.551Z,97501.16
2023-04-13T16:20:28.276Z,97500.53
2023-04-13T16:22:59.226Z,97508.66
2023-04-13T16:25:25.883Z,97511.09
2023-04-13T16:27:54.171Z,97507.81
2023-04-13T16:30:24.320Z,97506.38
2023-04-13T16:32:51.294Z,97515.22
2023-04-13T16:35:18.051Z,97512.94
2023-04-13T16:37:45.130Z,97510.75
2023-04-13T16:40:12.757Z,97511.66
2023-04-13T16:42:40.771Z,97519.97
2023-04-13T16:45:12.903Z,97523.78
2023-04-13T16:47:42.042Z,97524.69
2023-04-13T16:50:09.936Z,97521.69
2023-04-13T16:52:38.804Z,97524.84
2023-04-13T16:55:06.220Z,97525.38
2023-04-13T16:57:33.176Z,97528.94
2023-04-13T17:00:07.104Z,97539.13
2023-04-13T17:02:34.212Z,97537.75
2023-04-13T17:05:01.124Z,97549.66
2023-04-13T17:07:28.277Z,97545.66
2023-04-13T17:09:55.674Z,97549.81
2023-04-13T17:12:22.852Z,97552.44
2023-04-13T17:14:49.812Z,97553.25
2023-04-13T17:17:16.418Z,97549.09
2023-04-13T17:19:42.888Z,97556.16
2023-04-13T17:22:09.512Z,97550.38
2023-04-13T17:24:36.632Z,97557.44
2023-04-13T17:27:03.142Z,97557.66
2023-04-13T17:29:29.649Z,97563.81
2023-04-13T17:31:56.563Z,97564.84
2023-04-13T17:34:23.118Z,97562.47
2023-04-13T17:36:49.581Z,97564.22
2023-04-13T17:39:16.025Z,97563.97
2023-04-13T17:41:43.183Z,97559.56
2023-04-13T17:44:09.714Z,97566.47
2023-04-13T17:46:36.613Z,97569.13
2023-04-13T17:49:03.218Z,97570.13
2023-04-13T17:51:30.777Z,97573.78
2023-04-13T17:53:57.202Z,97570.94
2023-04-13T17:56:23.657Z,97576.13
2023-04-13T17:58:50.157Z,97567.19
2023-04-13T18:01:16.942Z,97568.63
2023-04-13T18:03:43.808Z,97571.28
2023-04-13T18:06:10.874Z,97577.19
2023-04-13T18:08:37.313Z,97578.69
2023-04-13T18:11:03.978Z,97577.69
2023-04-13T18:13:31.459Z,97583.41
2023-04-13T18:15:58.077Z,97582.66
2023-04-13T18:18:25.065Z,97590.56
2023-04-13T18:20:52.474Z,97596.41
2023-04-13T18:23:19.851Z,97601.84
2023-04-13T18:25:50.356Z,97603.50
2023-04-13T18:28:17.496Z,97607.72
2023-04-13T18:30:44.947Z,97615.00
2023-04-13T18:33:12.112Z,97612.78
2023-04-13T18:35:46.170Z,97625.09
2023-04-13T18:38:12.706Z,97626.69
2023-04-13T18:40:40.301Z,97630.91
2023-04-13T18:43:07.739Z,97631.50
2023-04-13T18:45:34.425Z,97633.31
2023-04-13T18:48:01.143Z,97645.81
2023-04-13T18:50:28.075Z,97657.66
2023-04-13T18:52:54.790Z,97651.72
2023-04-13T18:55:23.016Z,97652.28
2023-04-13T18:57:51.754Z,97649.72
2023-04-13T19:00:18.664Z,97653.59
2023-04-13T19:02:48.301Z,97658.22
2023-04-13T19:05:15.430Z,97656.84
2023-04-13T19:07:44.724Z,97651.25
2023-04-13T19:10:11.409Z,97665.94
2023-04-13T19:12:38.012Z,97664.09
2023-04-13T19:15:05.007Z,97664.66
2023-04-13T19:17:34.148Z,97665.31
2023-04-13T19:20:00.902Z,97668.00
2023-04-13T19:22:27.395Z,97673.78
2023-04-13T19:24:53.852Z,97673.97
2023-04-13T19:27:21.199Z,97678.53
2023-04-13T19:29:47.653Z,97684.53
2023-04-13T19:32:16.604Z,97680.31
2023-04-13T19:34:43.264Z,97679.69
2023-04-13T19:37:09.953Z,97689.88
2023-04-13T19:39:36.402Z,97678.53
2023-04-13T19:42:04.995Z,97679.56
2023-04-13T19:44:31.617Z,97675.47
2023-04-13T19:46:58.150Z,97685.31
2023-04-13T19:49:25.720Z,97693.56
2023-04-13T19:51:52.212Z,97693.00
2023-04-13T19:54:18.998Z,97702.59
2023-04-13T19:56:45.529Z,97698.88
2023-04-13T19:59:12.208Z,97703.66
2023-04-13T20:01:40.550Z,97705.94
2023-04-13T20:04:07.175Z,97701.88
2023-04-13T20:06:34.084Z,97695.75
2023-04-13T20:09:14.237Z,97694.59
2023-04-13T20:11:41.766Z,97698.69
2023-04-13T20:14:09.651Z,97694.53
2023-04-13T20:16:36.135Z,97699.06
2023-04-13T20:19:02.780Z,97697.31
2023-04-13T20:21:31.074Z,97697.25
2023-04-13T20:23:58.188Z,97702.63
2023-04-13T20:26:29.652Z,97703.34
2023-04-13T20:29:00.985Z,97698.38
2023-04-13T20:31:31.651Z,97696.03
2023-04-13T20:33:59.052Z,97690.34
2023-04-13T20:36:25.710Z,97699.53
2023-04-13T20:38:52.829Z,97696.09
2023-04-13T20:41:21.795Z,97695.84
2023-04-13T20:43:50.284Z,97697.66
2023-04-13T20:46:16.945Z,97701.59
2023-04-13T20:51:13.380Z,97698.59
2023-04-13T20:53:39.873Z,97700.53
2023-04-13T20:56:09.382Z,97697.69
2023-04-13T20:58:37.344Z,97705.75
2023-04-13T21:01:04.613Z,97699.56
2023-04-13T21:03:31.948Z,97699.81
2023-04-13T21:05:59.406Z,97706.94
2023-04-13T21:08:27.282Z,97708.41
2023-04-13T21:10:53.712Z,97712.28
2023-04-13T21:13:22.259Z,97712.84
2023-04-13T21:15:48.734Z,97698.41
2023-04-13T21:18:15.267Z,97707.56
2023-04-13T21:20:44.546Z,97706.84
2023-04-13T21:23:11.101Z,97705.84
2023-04-13T21:25:37.740Z,97704.63
2023-04-13T21:28:04.388Z,97701.91
2023-04-13T21:30:31.055Z,97701.34
2023-04-13T21:32:57.554Z,97714.50
2023-04-13T21:35:24.134Z,97721.88
2023-04-13T21:37:50.606Z,97721.06
2023-04-13T21:40:18.268Z,97713.75
2023-04-13T21:42:45.034Z,97718.66
2023-04-13T21:45:11.729Z,97720.44
2023-04-13T21:47:38.411Z,97721.22
2023-04-13T21:50:06.096Z,97727.63
2023-04-13T21:52:32.584Z,97724.03
2023-04-13T21:54:59.793Z,97734.00
2023-04-13T21:57:26.724Z,97731.41
2023-04-13T21:59:54.610Z,97730.22
2023-04-13T22:02:21.372Z,97735.78
2023-04-13T22:04:47.955Z,97741.84
2023-04-13T22:07:14.532Z,97739.22
2023-04-13T22:09:41.143Z,97736.44
2023-04-13T22:12:07.664Z,97745.06
2023-04-13T22:14:34.082Z,97743.56
2023-04-13T22:17:00.550Z,97743.44
2023-04-13T22:19:27.090Z,97747.34
2023-04-13T22:21:53.548Z,97752.09
2023-04-13T22:24:20.018Z,97752.91
2023-04-13T22:26:46.778Z,97749.78
2023-04-13T22:29:13.338Z,97751.25
2023-04-13T22:31:39.817Z,97750.47
2023-04-13T22:34:06.333Z,97757.31
2023-04-13T22:36:32.778Z,97749.31
2023-04-13T22:38:59.534Z,97751.88
2023-04-13T22:41:26.281Z,97754.81
2023-04-13T22:43:52.723Z,97748.75
2023-04-13T22:46:19.403Z,97752.22
2023-04-13T22:48:45.932Z,97753.69
2023-04-13T22:51:12.384Z,97754.34
2023-04-13T22:53:38.838Z,97756.91
2023-04-13T22:56:05.572Z,97756.22
2023-04-13T22:58:32.029Z,97760.81
2023-04-13T23:00:59.340Z,97756.44
2023-04-13T23:03:26.288Z,97758.41
2023-04-13T23:05:52.884Z,97758.41
2023-04-13T23:08:19.359Z,97761.16
2023-04-13T23:10:45.831Z,97765.50
2023-04-13T23:13:12.336Z,97758.72
2023-04-13T23:15:39.384Z,97761.25
2023-04-13T23:18:06.077Z,97754.63
2023-04-13T23:20:32.624Z,97761.47
2023-04-13T23:22:59.079Z,97764.28
2023-04-13T23:25:25.543Z,97773.72
2023-04-13T23:27:52.016Z,97766.78
2023-04-13T23:30:18.568Z,97763.94
2023-04-13T23:32:45.391Z,97771.75
2023-04-13T23:35:11.931Z,97769.94
2023-04-13T23:37:40.559Z,97773.41
2023-04-13T23:40:07.947Z,97765.31
2023-04-13T23:42:34.513Z,97770.03
2023-04-13T23:45:01.248Z,97764.16
2023-04-13T23:47:28.500Z,97763.84
2023-04-13T23:49:55.745Z,97767.50
2023-04-13T23:52:22.413Z,97771.50
2023-04-13T23:54:48.885Z,97768.41
2023-04-13T23:57:15.516Z,97766.53
2023-04-13T23:59:41.986Z,97774.84
